Gabby Miller — WDE3399 — position and weather

sailwx.info

Track history (hours):
 
Tides and Currents Weather Stations Pressure Air Temp Water Temp Dewpoint Dewpoint Depression Visibility Wind Speed Wind Dir Waves Ship Positions

Gabby Miller

Owner: Miller's Launch, Staten Island, NY. More information available from US FCC via Universal Licensing System and Coast Guard Vessel Documentation Center.

Last reported at 2018-Jun-15 21:33 UTC. Time now 2018-Jun-18 11:26 UTC.
Position N 40°38' W 074°04'.

Length 7 m; draft 2 m.

Type: Fishing. MMSI: 367338610.

Date/timePositionNaut miles runAvg speedWind from/ knotsBaromVisibWave heightAir tempDewpointWater temp
2018-Jun-15 21:33N 40°38' W 074°04'0 0.1
2018-Jun-15 21:30N 40°38' W 074°04'0 0.4
2018-Jun-15 21:00N 40°38' W 074°04'0 0.3
2018-Jun-15 20:18N 40°38' W 074°04'0 0.2
2018-Jun-15 20:00N 40°38' W 074°04'0 0.2
2018-Jun-15 19:30N 40°38' W 074°04'0 0.0
2018-Jun-15 19:00N 40°38' W 074°04'0 0.1
2018-Jun-15 18:29N 40°38' W 074°04'1 2.0
2018-Jun-15 18:00N 40°39' W 074°04'2 4.5
2018-Jun-15 17:30N 40°41' W 074°03'0 0.5
2018-Jun-15 17:00N 40°41' W 074°03'0 0.0
2018-Jun-15 16:30N 40°41' W 074°03'0 0.7
2018-Jun-15 16:00N 40°41' W 074°03'3 5.0
2018-Jun-15 15:30N 40°39' W 074°04'1 1.2
2018-Jun-15 14:54N 40°38' W 074°04'0 0.1
2018-Jun-15 14:30N 40°38' W 074°04'0 0.0
2018-Jun-15 14:00N 40°38' W 074°04'2 3.0
2018-Jun-15 13:29N 40°40' W 074°03'2 4.4
2018-Jun-15 13:00N 40°42' W 074°03'0 0.2
2018-Jun-15 12:30N 40°42' W 074°03'0 0.0
2018-Jun-15 11:58N 40°42' W 074°03'0 0.1
2018-Jun-15 11:30N 40°42' W 074°03'2 4.8
2018-Jun-15 11:00N 40°39' W 074°04'1 2.3
2018-Jun-15 10:30N 40°38' W 074°04'0 0.2
2018-Jun-15 10:00N 40°38' W 074°04'0 0.1
2018-Jun-15 09:29N 40°38' W 074°04'0 0.0
2018-Jun-15 09:00N 40°38' W 074°04'0 0.0
2018-Jun-15 08:25N 40°38' W 074°04'0 0.0
2018-Jun-15 08:00N 40°38' W 074°04'0 0.0
2018-Jun-14 20:31N 40°38' W 074°04'0 0.0
2018-Jun-14 20:29N 40°38' W 074°04'0 0.0
2018-Jun-14 19:58N 40°38' W 074°04'0 0.0
2018-Jun-14 19:21N 40°38' W 074°04'3 7.3
2018-Jun-14 19:00N 40°40' W 074°03'4 8.3
2018-Jun-14 18:28N 40°45' W 074°01'0 0.1
2018-Jun-14 17:59N 40°45' W 074°01'0 0.0
2018-Jun-14 17:29N 40°45' W 074°01'0 0.0
2018-Jun-14 17:00N 40°45' W 074°01'0 0.0
2018-Jun-14 16:27N 40°45' W 074°01'0 0.1
2018-Jun-14 15:59N 40°45' W 074°01'0 0.0
2018-Jun-14 15:30N 40°45' W 074°01'0 0.0
2018-Jun-14 14:59N 40°45' W 074°01'0 0.0
2018-Jun-14 14:29N 40°45' W 074°01'0 0.0
2018-Jun-14 13:56N 40°45' W 074°01'0 0.0
2018-Jun-14 13:30N 40°45' W 074°01'0 0.1
2018-Jun-14 13:00N 40°45' W 074°01'0 0.0
2018-Jun-14 12:15N 40°45' W 074°01'0 0.1
2018-Jun-14 12:00N 40°45' W 074°01'0 0.0
2018-Jun-14 11:20N 40°45' W 074°01'0 0.0
2018-Jun-14 10:55N 40°45' W 074°01'0 0.1
2018-Jun-14 10:25N 40°45' W 074°01'0 1.1
2018-Jun-14 10:00N 40°44' W 074°01'3 5.2
2018-Jun-14 09:30N 40°42' W 074°02'3 6.0
2018-Jun-14 09:00N 40°39' W 074°04'1 0.0
2018-Jun-12 22:26N 40°38' W 074°04'1 1.8
2018-Jun-12 21:54N 40°39' W 074°03'2 4.0
2018-Jun-12 21:30N 40°40' W 074°02'2 4.3
2018-Jun-12 21:01N 40°42' W 074°00'2 4.3
2018-Jun-12 20:30N 40°43' W 073°58'0 0.1
2018-Jun-12 18:12N 40°43' W 073°58'1 3.3
2018-Jun-12 18:00N 40°43' W 073°58'2 3.3
2018-Jun-12 17:30N 40°42' W 074°00'2 3.5
2018-Jun-12 17:01N 40°40' W 074°02'2 3.2
2018-Jun-12 16:30N 40°39' W 074°02'2 3.1
2018-Jun-12 16:00N 40°38' W 074°04'0 0.0
2018-Jun-12 14:41N 40°38' W 074°04'0 0.0
2018-Jun-12 14:20N 40°38' W 074°04'0 0.2
2018-Jun-12 13:59N 40°38' W 074°04'2 4.5
2018-Jun-12 13:30N 40°40' W 074°03'1 2.5
2018-Jun-12 12:59N 40°42' W 074°03'0 0.0
2018-Jun-12 12:30N 40°42' W 074°03'0 0.0
2018-Jun-12 12:01N 40°42' W 074°03'3 0.1
2018-Jun-11 12:47N 40°44' W 074°05'0 0.1
2018-Jun-11 10:24N 40°44' W 074°05'3 6.6
2018-Jun-11 09:58N 40°42' W 074°07'5 0.3
2018-Jun-10 18:52N 40°38' W 074°04'1 1.5
2018-Jun-10 18:30N 40°38' W 074°04'0 0.1
2018-Jun-10 18:00N 40°38' W 074°04'0 0.1
2018-Jun-10 17:30N 40°38' W 074°04'0 0.0
2018-Jun-10 16:59N 40°38' W 074°04'0 0.0
2018-Jun-10 16:30N 40°38' W 074°04'0 0.0
2018-Jun-10 16:00N 40°38' W 074°04'0 0.0
2018-Jun-10 15:30N 40°38' W 074°04'0 0.0
2018-Jun-10 15:00N 40°38' W 074°04'0 0.0
2018-Jun-10 14:30N 40°38' W 074°04'1 0.2
2018-Jun-10 11:59N 40°38' W 074°04'0 0.0
2018-Jun-08 23:21N 40°38' W 074°04'0 0.2
2018-Jun-08 22:57N 40°38' W 074°04'0 0.1
2018-Jun-08 22:17N 40°38' W 074°04'0 0.1
2018-Jun-08 22:00N 40°38' W 074°04'0 0.0
2018-Jun-08 17:54N 40°38' W 074°04'0 0.0
2018-Jun-08 17:23N 40°38' W 074°04'0 0.0
2018-Jun-08 16:55N 40°38' W 074°04'0 0.0
2018-Jun-08 16:08N 40°38' W 074°04'1 4.5
2018-Jun-08 16:00N 40°39' W 074°04'3 5.6
2018-Jun-08 15:23N 40°38' W 074°09'4 2.8
2018-Jun-08 13:55N 40°39' W 074°04'3 6.3
2018-Jun-08 13:30N 40°41' W 074°01'3 6.4
2018-Jun-08 12:59N 40°44' W 073°58'2 0.4
2018-Jun-08 08:40N 40°45' W 073°57'2 8.9
2018-Jun-08 08:23N 40°43' W 073°58'3 8.3
2018-Jun-08 08:00N 40°41' W 074°01'3 5.6
2018-Jun-08 07:23N 40°38' W 074°04'0 0.0
2018-Jun-08 06:57N 40°38' W 074°04'0 0.0
2018-Jun-08 06:25N 40°38' W 074°04'0 0.0
2018-Jun-08 05:56N 40°38' W 074°04'0 0.0
2018-Jun-08 05:29N 40°38' W 074°04'0 0.0
2018-Jun-08 05:00N 40°38' W 074°04'0 0.0
2018-Jun-08 03:45N 40°38' W 074°04'0 0.0
2018-Jun-08 03:20N 40°38' W 074°04'0 0.0
2018-Jun-08 02:59N 40°38' W 074°04'0 0.0
2018-Jun-08 02:28N 40°38' W 074°04'0 0.0
2018-Jun-08 01:39N 40°38' W 074°04'0 0.0
2018-Jun-08 01:14N 40°38' W 074°04'0 0.0
2018-Jun-08 00:55N 40°38' W 074°04'0 0.0
2018-Jun-08 00:30N 40°38' W 074°04'0 0.0
2018-Jun-07 23:48N 40°38' W 074°04'0 0.0
2018-Jun-07 23:29N 40°38' W 074°04'0 0.0
2018-Jun-07 22:24N 40°38' W 074°04'0 0.0
2018-Jun-07 21:49N 40°38' W 074°04'0 0.0
2018-Jun-07 21:26N 40°38' W 074°04'0 0.0
2018-Jun-07 20:52N 40°38' W 074°04'0 0.0
2018-Jun-07 20:27N 40°38' W 074°04'0 0.0
2018-Jun-07 19:53N 40°38' W 074°04'0 0.0
2018-Jun-07 19:28N 40°38' W 074°04'0 0.0
2018-Jun-07 18:55N 40°38' W 074°04'0 0.0
2018-Jun-07 18:23N 40°38' W 074°04'0 0.0
2018-Jun-07 17:58N 40°38' W 074°04'0 0.0
2018-Jun-07 17:30N 40°38' W 074°04'0 0.0
2018-Jun-07 17:00N 40°38' W 074°04'0 0.0
2018-Jun-07 16:24N 40°38' W 074°04'0 0.0
2018-Jun-07 15:47N 40°38' W 074°04'0 0.0
2018-Jun-07 15:30N 40°38' W 074°04'3 5.8
2018-Jun-07 15:00N 40°41' W 074°03'4 7.6
2018-Jun-07 14:30N 40°44' W 074°01'0 0.4
2018-Jun-07 13:56N 40°45' W 074°01'3 6.0
2018-Jun-07 13:30N 40°42' W 074°02'4 7.6
2018-Jun-07 13:00N 40°39' W 074°04'1 0.0
2018-Jun-06 19:56N 40°38' W 074°04'1 1.6
2018-Jun-06 19:26N 40°39' W 074°03'3 6.9
2018-Jun-06 19:00N 40°41' W 074°01'3 5.6
2018-Jun-06 18:30N 40°43' W 073°58'  
Track history (hours):
 
Tides and Currents Weather Stations Pressure Air Temp Water Temp Dewpoint Dewpoint Depression Visibility Wind Speed Wind Dir Waves Ship Positions

Gabby Miller

Owner: Miller's Launch, Staten Island, NY. More information available from US FCC via Universal Licensing System and Coast Guard Vessel Documentation Center.

Last reported at 2018-Jun-15 21:33 UTC. Time now 2018-Jun-18 11:26 UTC.
Position N 40°38' W 074°04'.

Length 7 m; draft 2 m.

Type: Fishing. MMSI: 367338610.

Date/timePositionNaut miles runAvg speedWind from/ knotsBaromVisibWave heightAir tempDewpointWater temp
2018-Jun-15 21:33N 40°38' W 074°04'0 0.1
2018-Jun-15 21:30N 40°38' W 074°04'0 0.4
2018-Jun-15 21:00N 40°38' W 074°04'0 0.3
2018-Jun-15 20:18N 40°38' W 074°04'0 0.2
2018-Jun-15 20:00N 40°38' W 074°04'0 0.2
2018-Jun-15 19:30N 40°38' W 074°04'0 0.0
2018-Jun-15 19:00N 40°38' W 074°04'0 0.1
2018-Jun-15 18:29N 40°38' W 074°04'1 2.0
2018-Jun-15 18:00N 40°39' W 074°04'2 4.5
2018-Jun-15 17:30N 40°41' W 074°03'0 0.5
2018-Jun-15 17:00N 40°41' W 074°03'0 0.0
2018-Jun-15 16:30N 40°41' W 074°03'0 0.7
2018-Jun-15 16:00N 40°41' W 074°03'3 5.0
2018-Jun-15 15:30N 40°39' W 074°04'1 1.2
2018-Jun-15 14:54N 40°38' W 074°04'0 0.1
2018-Jun-15 14:30N 40°38' W 074°04'0 0.0
2018-Jun-15 14:00N 40°38' W 074°04'2 3.0
2018-Jun-15 13:29N 40°40' W 074°03'2 4.4
2018-Jun-15 13:00N 40°42' W 074°03'0 0.2
2018-Jun-15 12:30N 40°42' W 074°03'0 0.0
2018-Jun-15 11:58N 40°42' W 074°03'0 0.1
2018-Jun-15 11:30N 40°42' W 074°03'2 4.8
2018-Jun-15 11:00N 40°39' W 074°04'1 2.3
2018-Jun-15 10:30N 40°38' W 074°04'0 0.2
2018-Jun-15 10:00N 40°38' W 074°04'0 0.1
2018-Jun-15 09:29N 40°38' W 074°04'0 0.0
2018-Jun-15 09:00N 40°38' W 074°04'0 0.0
2018-Jun-15 08:25N 40°38' W 074°04'0 0.0
2018-Jun-15 08:00N 40°38' W 074°04'0 0.0
2018-Jun-14 20:31N 40°38' W 074°04'0 0.0
2018-Jun-14 20:29N 40°38' W 074°04'0 0.0
2018-Jun-14 19:58N 40°38' W 074°04'0 0.0
2018-Jun-14 19:21N 40°38' W 074°04'3 7.3
2018-Jun-14 19:00N 40°40' W 074°03'4 8.3
2018-Jun-14 18:28N 40°45' W 074°01'0 0.1
2018-Jun-14 17:59N 40°45' W 074°01'0 0.0
2018-Jun-14 17:29N 40°45' W 074°01'0 0.0
2018-Jun-14 17:00N 40°45' W 074°01'0 0.0
2018-Jun-14 16:27N 40°45' W 074°01'0 0.1
2018-Jun-14 15:59N 40°45' W 074°01'0 0.0
2018-Jun-14 15:30N 40°45' W 074°01'0 0.0
2018-Jun-14 14:59N 40°45' W 074°01'0 0.0
2018-Jun-14 14:29N 40°45' W 074°01'0 0.0
2018-Jun-14 13:56N 40°45' W 074°01'0 0.0
2018-Jun-14 13:30N 40°45' W 074°01'0 0.1
2018-Jun-14 13:00N 40°45' W 074°01'0 0.0
2018-Jun-14 12:15N 40°45' W 074°01'0 0.1
2018-Jun-14 12:00N 40°45' W 074°01'0 0.0
2018-Jun-14 11:20N 40°45' W 074°01'0 0.0
2018-Jun-14 10:55N 40°45' W 074°01'0 0.1
2018-Jun-14 10:25N 40°45' W 074°01'0 1.1
2018-Jun-14 10:00N 40°44' W 074°01'3 5.2
2018-Jun-14 09:30N 40°42' W 074°02'3 6.0
2018-Jun-14 09:00N 40°39' W 074°04'1 0.0
2018-Jun-12 22:26N 40°38' W 074°04'1 1.8
2018-Jun-12 21:54N 40°39' W 074°03'2 4.0
2018-Jun-12 21:30N 40°40' W 074°02'2 4.3
2018-Jun-12 21:01N 40°42' W 074°00'2 4.3
2018-Jun-12 20:30N 40°43' W 073°58'0 0.1
2018-Jun-12 18:12N 40°43' W 073°58'1 3.3
2018-Jun-12 18:00N 40°43' W 073°58'2 3.3
2018-Jun-12 17:30N 40°42' W 074°00'2 3.5
2018-Jun-12 17:01N 40°40' W 074°02'2 3.2
2018-Jun-12 16:30N 40°39' W 074°02'2 3.1
2018-Jun-12 16:00N 40°38' W 074°04'0 0.0
2018-Jun-12 14:41N 40°38' W 074°04'0 0.0
2018-Jun-12 14:20N 40°38' W 074°04'0 0.2
2018-Jun-12 13:59N 40°38' W 074°04'2 4.5
2018-Jun-12 13:30N 40°40' W 074°03'1 2.5
2018-Jun-12 12:59N 40°42' W 074°03'0 0.0
2018-Jun-12 12:30N 40°42' W 074°03'0 0.0
2018-Jun-12 12:01N 40°42' W 074°03'3 0.1
2018-Jun-11 12:47N 40°44' W 074°05'0 0.1
2018-Jun-11 10:24N 40°44' W 074°05'3 6.6
2018-Jun-11 09:58N 40°42' W 074°07'5 0.3
2018-Jun-10 18:52N 40°38' W 074°04'1 1.5
2018-Jun-10 18:30N 40°38' W 074°04'0 0.1
2018-Jun-10 18:00N 40°38' W 074°04'0 0.1
2018-Jun-10 17:30N 40°38' W 074°04'0 0.0
2018-Jun-10 16:59N 40°38' W 074°04'0 0.0
2018-Jun-10 16:30N 40°38' W 074°04'0 0.0
2018-Jun-10 16:00N 40°38' W 074°04'0 0.0
2018-Jun-10 15:30N 40°38' W 074°04'0 0.0
2018-Jun-10 15:00N 40°38' W 074°04'0 0.0
2018-Jun-10 14:30N 40°38' W 074°04'1 0.2
2018-Jun-10 11:59N 40°38' W 074°04'0 0.0
2018-Jun-08 23:21N 40°38' W 074°04'0 0.2
2018-Jun-08 22:57N 40°38' W 074°04'0 0.1
2018-Jun-08 22:17N 40°38' W 074°04'0 0.1
2018-Jun-08 22:00N 40°38' W 074°04'0 0.0
2018-Jun-08 17:54N 40°38' W 074°04'0 0.0
2018-Jun-08 17:23N 40°38' W 074°04'0 0.0
2018-Jun-08 16:55N 40°38' W 074°04'0 0.0
2018-Jun-08 16:08N 40°38' W 074°04'1 4.5
2018-Jun-08 16:00N 40°39' W 074°04'3 5.6
2018-Jun-08 15:23N 40°38' W 074°09'4 2.8
2018-Jun-08 13:55N 40°39' W 074°04'3 6.3
2018-Jun-08 13:30N 40°41' W 074°01'3 6.4
2018-Jun-08 12:59N 40°44' W 073°58'2 0.4
2018-Jun-08 08:40N 40°45' W 073°57'2 8.9
2018-Jun-08 08:23N 40°43' W 073°58'3 8.3
2018-Jun-08 08:00N 40°41' W 074°01'3 5.6
2018-Jun-08 07:23N 40°38' W 074°04'0 0.0
2018-Jun-08 06:57N 40°38' W 074°04'0 0.0
2018-Jun-08 06:25N 40°38' W 074°04'0 0.0
2018-Jun-08 05:56N 40°38' W 074°04'0 0.0
2018-Jun-08 05:29N 40°38' W 074°04'0 0.0
2018-Jun-08 05:00N 40°38' W 074°04'0 0.0
2018-Jun-08 03:45N 40°38' W 074°04'0 0.0
2018-Jun-08 03:20N 40°38' W 074°04'0 0.0
2018-Jun-08 02:59N 40°38' W 074°04'0 0.0
2018-Jun-08 02:28N 40°38' W 074°04'0 0.0
2018-Jun-08 01:39N 40°38' W 074°04'0 0.0
2018-Jun-08 01:14N 40°38' W 074°04'0 0.0
2018-Jun-08 00:55N 40°38' W 074°04'0 0.0
2018-Jun-08 00:30N 40°38' W 074°04'0 0.0
2018-Jun-07 23:48N 40°38' W 074°04'0 0.0
2018-Jun-07 23:29N 40°38' W 074°04'0 0.0
2018-Jun-07 22:24N 40°38' W 074°04'0 0.0
2018-Jun-07 21:49N 40°38' W 074°04'0 0.0
2018-Jun-07 21:26N 40°38' W 074°04'0 0.0
2018-Jun-07 20:52N 40°38' W 074°04'0 0.0
2018-Jun-07 20:27N 40°38' W 074°04'0 0.0
2018-Jun-07 19:53N 40°38' W 074°04'0 0.0
2018-Jun-07 19:28N 40°38' W 074°04'0 0.0
2018-Jun-07 18:55N 40°38' W 074°04'0 0.0
2018-Jun-07 18:23N 40°38' W 074°04'0 0.0
2018-Jun-07 17:58N 40°38' W 074°04'0 0.0
2018-Jun-07 17:30N 40°38' W 074°04'0 0.0
2018-Jun-07 17:00N 40°38' W 074°04'0 0.0
2018-Jun-07 16:24N 40°38' W 074°04'0 0.0
2018-Jun-07 15:47N 40°38' W 074°04'0 0.0
2018-Jun-07 15:30N 40°38' W 074°04'3 5.8
2018-Jun-07 15:00N 40°41' W 074°03'4 7.6
2018-Jun-07 14:30N 40°44' W 074°01'0 0.4
2018-Jun-07 13:56N 40°45' W 074°01'3 6.0
2018-Jun-07 13:30N 40°42' W 074°02'4 7.6
2018-Jun-07 13:00N 40°39' W 074°04'1 0.0
2018-Jun-06 19:56N 40°38' W 074°04'1 1.6
2018-Jun-06 19:26N 40°39' W 074°03'3 6.9
2018-Jun-06 19:00N 40°41' W 074°01'3 5.6
2018-Jun-06 18:30N 40°43' W 073°58'  

Dump ship's entire track history